createdAt,value
2022-11-15T00:00:44.058Z,9.6
2022-11-15T00:06:29.036Z,10.3
2022-11-15T00:12:12.013Z,11.6
2022-11-15T00:17:55.715Z,12.1
2022-11-15T00:23:39.189Z,9.7
2022-11-15T00:29:22.228Z,9.8
2022-11-15T00:35:05.380Z,11.8
2022-11-15T00:40:48.610Z,12.6
2022-11-15T00:46:31.514Z,9.7
2022-11-15T00:52:16.350Z,10.8
2022-11-15T00:57:59.285Z,11.2
2022-11-15T01:03:42.834Z,11.8
2022-11-15T01:09:25.830Z,10.9
2022-11-15T01:15:08.934Z,9.7
2022-11-15T01:20:53.245Z,11.9
2022-11-15T01:26:36.212Z,10.6
2022-11-15T01:32:19.157Z,9.1
2022-11-15T01:38:01.937Z,10.6
2022-11-15T01:43:44.787Z,11.1
2022-11-15T01:49:31.097Z,9.7
2022-11-15T01:55:17.084Z,10.9
2022-11-15T02:01:01.276Z,9.9
2022-11-15T02:06:44.868Z,10.6
2022-11-15T02:12:27.915Z,11
2022-11-15T02:18:18.979Z,10.7
2022-11-15T02:24:19.234Z,10.9
2022-11-15T02:30:10.603Z,10.3
2022-11-15T02:35:58.763Z,11.2
2022-11-15T02:41:45.658Z,11.8
2022-11-15T02:47:31.325Z,9.3
2022-11-15T02:53:14.828Z,11
2022-11-15T02:59:05.811Z,11.3
2022-11-15T03:04:54.734Z,10.7
2022-11-15T03:10:43.523Z,9.9
2022-11-15T03:16:29.187Z,8.9
2022-11-15T03:22:14.598Z,10.1
2022-11-15T03:27:59.759Z,9.7
2022-11-15T03:33:43.982Z,9.3
2022-11-15T03:39:28.116Z,8.9
2022-11-15T03:45:14.573Z,7.7
2022-11-15T03:50:57.942Z,8.5
2022-11-15T03:56:40.851Z,9.9
2022-11-15T04:02:24.784Z,7.3
2022-11-15T04:08:07.600Z,8.1
2022-11-15T04:13:52.399Z,7.1
2022-11-15T04:19:35.166Z,7.3
2022-11-15T04:25:32.530Z,6.1
2022-11-15T04:31:15.626Z,6.5
2022-11-15T04:36:58.521Z,6.1
2022-11-15T04:42:43.586Z,5.8
2022-11-15T04:48:26.333Z,7.5
2022-11-15T04:54:09.537Z,6.7
2022-11-15T04:59:52.329Z,6.6
2022-11-15T05:05:35.433Z,6.9
2022-11-15T05:11:19.380Z,5.6
2022-11-15T05:17:02.233Z,6.4
2022-11-15T05:22:45.500Z,6.8
2022-11-15T05:28:28.568Z,5.1
2022-11-15T05:34:11.417Z,6.5
2022-11-15T05:39:54.461Z,5.7
2022-11-15T05:45:38.291Z,5.9
2022-11-15T05:51:22.829Z,7
2022-11-15T05:57:05.820Z,5.5
2022-11-15T06:02:48.969Z,4.5
2022-11-15T06:08:32.868Z,5.9
2022-11-15T06:14:16.963Z,4.2
2022-11-15T06:19:59.913Z,5.9
2022-11-15T06:25:42.877Z,4.2
2022-11-15T06:31:25.646Z,4.7
2022-11-15T06:37:08.592Z,5.2
2022-11-15T06:42:51.337Z,4.6
2022-11-15T06:48:34.973Z,4.7
2022-11-15T06:54:17.904Z,3.5
2022-11-15T07:00:00.885Z,5.7
2022-11-15T07:05:43.762Z,4.5
2022-11-15T07:11:26.761Z,4.1
2022-11-15T07:17:10.448Z,4.4
2022-11-15T07:22:53.396Z,4.1
2022-11-15T07:28:36.664Z,4
2022-11-15T07:34:19.840Z,4.7
2022-11-15T07:40:02.925Z,4.5
2022-11-15T07:45:48.088Z,4.5
2022-11-15T07:51:31.272Z,5
2022-11-15T07:57:15.145Z,4.2
2022-11-15T08:03:02.963Z,5.3
2022-11-15T08:08:46.035Z,4.1
2022-11-15T08:14:31.161Z,4.4
2022-11-15T08:20:14.633Z,3.7
2022-11-15T08:26:01.940Z,4.8
2022-11-15T08:31:45.236Z,5.4
2022-11-15T08:37:28.173Z,4.7
2022-11-15T08:43:11.114Z,3.9
2022-11-15T08:48:54.093Z,3.8
2022-11-15T08:54:36.920Z,4.1
2022-11-15T09:00:20.589Z,3.7
2022-11-15T09:06:05.588Z,3
2022-11-15T09:11:50.429Z,3.9
2022-11-15T09:17:33.274Z,3.7
2022-11-15T09:23:16.609Z,4
2022-11-15T09:28:59.448Z,3.8
2022-11-15T09:34:42.454Z,4
2022-11-15T09:40:25.975Z,3.6
2022-11-15T09:46:16.693Z,3.3
2022-11-15T09:52:01.182Z,3.8
2022-11-15T09:57:47.707Z,3.9
2022-11-15T10:03:33.637Z,4.2
2022-11-15T10:09:26.031Z,3.5
2022-11-15T10:15:14.602Z,4.5
2022-11-15T10:21:00.870Z,4.5
2022-11-15T10:26:49.295Z,3.2
2022-11-15T10:32:33.236Z,3.2
2022-11-15T10:38:16.202Z,3.7
2022-11-15T10:44:12.276Z,2.5
2022-11-15T10:50:06.404Z,3.8
2022-11-15T10:55:50.772Z,2.8
2022-11-15T11:01:40.840Z,2.8
2022-11-15T11:07:28.479Z,4
2022-11-15T11:13:25.380Z,3.6
2022-11-15T11:19:14.273Z,3.5
2022-11-15T11:25:02.389Z,3.5
2022-11-15T11:30:51.951Z,1.5
2022-11-15T11:36:38.849Z,3.5
2022-11-15T11:42:26.747Z,1.6
2022-11-15T11:48:14.045Z,3.8
2022-11-15T11:53:59.781Z,4.1
2022-11-15T11:59:47.110Z,3.6
2022-11-15T12:05:33.676Z,3.3
2022-11-15T12:11:18.453Z,3.1
2022-11-15T12:17:01.262Z,3.7
2022-11-15T12:22:46.317Z,2.8
2022-11-15T12:28:35.601Z,2.1
2022-11-15T12:34:27.796Z,3.9
2022-11-15T12:40:19.006Z,2.6
2022-11-15T12:46:04.832Z,2.1
2022-11-15T12:52:08.098Z,2.1
2022-11-15T12:57:51.038Z,2.6
2022-11-15T13:03:34.355Z,3.3
2022-11-15T13:09:30.253Z,2.8
2022-11-15T13:15:24.291Z,2.5
2022-11-15T13:21:09.364Z,2.8
2022-11-15T13:26:52.391Z,1.9
2022-11-15T13:32:35.247Z,2.6
2022-11-15T13:38:21.945Z,1.8
2022-11-15T13:44:05.641Z,3.6
2022-11-15T13:49:48.447Z,1.8
2022-11-15T13:55:32.096Z,1.6
2022-11-15T14:01:18.073Z,2.7
2022-11-15T14:07:02.765Z,1.9
2022-11-15T14:12:50.861Z,2
2022-11-15T14:18:50.807Z,2
2022-11-15T14:24:34.759Z,2.9
2022-11-15T14:30:21.077Z,2.1
2022-11-15T14:36:06.722Z,1.9
2022-11-15T14:41:50.813Z,1.6
2022-11-15T14:47:33.634Z,2
2022-11-15T14:53:19.777Z,1.8
2022-11-15T14:59:02.795Z,2.3
2022-11-15T15:04:45.977Z,2.6
2022-11-15T15:10:42.844Z,1.5
2022-11-15T15:16:26.004Z,2.9
2022-11-15T15:22:08.988Z,2.9
2022-11-15T15:27:52.101Z,3
2022-11-15T15:33:35.234Z,1.9
2022-11-15T15:39:18.308Z,2.6
2022-11-15T15:45:02.132Z,2.2
2022-11-15T15:50:45.624Z,2.4
2022-11-15T15:56:29.653Z,2.1
2022-11-15T16:02:14.788Z,2.6
2022-11-15T16:07:58.648Z,2.6
2022-11-15T16:13:41.759Z,2.4
2022-11-15T16:19:25.627Z,3.5
2022-11-15T16:25:11.891Z,2.5
2022-11-15T16:31:01.389Z,2.2
2022-11-15T16:36:44.099Z,2.9
2022-11-15T16:42:26.889Z,2.7
2022-11-15T16:48:10.002Z,2.6
2022-11-15T16:53:55.679Z,2.7
2022-11-15T16:59:41.233Z,4
2022-11-15T17:05:24.943Z,2.9
2022-11-15T17:11:11.356Z,2.6
2022-11-15T17:16:55.971Z,2.6
2022-11-15T17:22:38.650Z,3.3
2022-11-15T17:28:23.520Z,3.7
2022-11-15T17:34:07.343Z,2.8
2022-11-15T17:39:50.133Z,4.3
2022-11-15T17:45:34.210Z,3
2022-11-15T17:51:17.934Z,2.7
2022-11-15T17:57:01.912Z,2.6
2022-11-15T18:02:45.809Z,2.7
2022-11-15T18:08:29.665Z,2.8
2022-11-15T18:14:15.168Z,3.2
2022-11-15T18:19:58.073Z,2.6
2022-11-15T18:25:40.823Z,3.3
2022-11-15T18:31:24.873Z,3
2022-11-15T18:37:07.599Z,2.8
2022-11-15T18:42:50.334Z,2.9
2022-11-15T18:48:35.589Z,2.8
2022-11-15T18:54:19.210Z,3.2
2022-11-15T19:00:02.211Z,5.3
2022-11-15T19:05:45.327Z,3
2022-11-15T19:11:29.861Z,3.9
2022-11-15T19:17:12.557Z,3
2022-11-15T19:22:55.506Z,3.3
2022-11-15T19:28:38.547Z,3.5
2022-11-15T19:34:22.032Z,3.6
2022-11-15T19:40:06.879Z,3.2
2022-11-15T19:46:03.232Z,2.9
2022-11-15T19:51:47.329Z,3.1
2022-11-15T19:57:30.978Z,4.8
2022-11-15T20:03:15.816Z,3.4
2022-11-15T20:08:59.314Z,2.8
2022-11-15T20:14:42.496Z,2.9
2022-11-15T20:20:26.692Z,3.5
2022-11-15T20:26:11.087Z,3
2022-11-15T20:31:56.809Z,3.9
2022-11-15T20:37:39.893Z,3.7
2022-11-15T20:43:23.816Z,4.4
2022-11-15T20:49:06.824Z,3.4
2022-11-15T20:54:50.089Z,3.1
2022-11-15T21:00:33.078Z,3
2022-11-15T21:06:16.131Z,3.5
2022-11-15T21:12:00.527Z,3.3
2022-11-15T21:17:43.644Z,3.9
2022-11-15T21:23:26.849Z,3.7
2022-11-15T21:29:10.581Z,4.1
2022-11-15T21:34:54.697Z,2.9
2022-11-15T21:40:39.803Z,4.2
2022-11-15T21:46:22.615Z,3.1
2022-11-15T21:52:05.937Z,3
2022-11-15T21:57:48.941Z,2.8
2022-11-15T22:03:31.819Z,3.1
2022-11-15T22:09:14.712Z,2.6
2022-11-15T22:14:58.022Z,2.6
2022-11-15T22:20:47.283Z,3.2
2022-11-15T22:26:30.321Z,3.4
2022-11-15T22:32:13.368Z,3.2
2022-11-15T22:37:56.417Z,2.6
2022-11-15T22:43:39.496Z,2.9
2022-11-15T22:49:23.480Z,3.3
2022-11-15T22:55:15.663Z,2.6
2022-11-15T23:00:59.520Z,3
2022-11-15T23:06:42.708Z,3.6
2022-11-15T23:12:26.965Z,2.2
2022-11-15T23:18:10.002Z,3.4
2022-11-15T23:23:53.742Z,2.5
2022-11-15T23:29:37.079Z,2.8
2022-11-15T23:35:20.171Z,3.6
2022-11-15T23:41:03.280Z,4.4
2022-11-15T23:46:46.233Z,3.5
2022-11-15T23:52:30.121Z,2.9
2022-11-15T23:58:13.306Z,3.6
